createdAt,value
2018-05-08T00:01:53.683Z,9.77
2018-05-08T00:04:21.786Z,13.87
2018-05-08T00:06:49.871Z,10.77
2018-05-08T00:09:23.571Z,12.03
2018-05-08T00:11:57.155Z,9.90
2018-05-08T00:14:25.245Z,13.07
2018-05-08T00:16:53.331Z,13.50
2018-05-08T00:19:21.445Z,10.43
2018-05-08T00:21:49.528Z,11.70
2018-05-08T00:24:17.659Z,11.13
2018-05-08T00:26:46.551Z,10.67
2018-05-08T00:29:14.643Z,9.90
2018-05-08T00:31:42.814Z,8.90
2018-05-08T00:34:10.911Z,9.93
2018-05-08T00:36:39.775Z,12.07
2018-05-08T00:39:07.979Z,12.13
2018-05-08T00:41:36.046Z,8.67
2018-05-08T00:44:04.131Z,9.03
2018-05-08T00:46:32.215Z,9.40
2018-05-08T00:49:00.315Z,8.80
2018-05-08T00:51:28.397Z,9.27
2018-05-08T00:53:56.491Z,10.57
2018-05-08T00:56:25.415Z,9.00
2018-05-08T00:58:53.504Z,11.53
2018-05-08T01:01:21.630Z,9.10
2018-05-08T01:03:50.199Z,10.47
2018-05-08T01:06:18.283Z,8.07
2018-05-08T01:08:46.368Z,9.20
2018-05-08T01:11:15.181Z,10.40
2018-05-08T01:13:43.270Z,8.77
2018-05-08T01:16:11.355Z,9.43
2018-05-08T01:18:39.461Z,9.73
2018-05-08T01:21:07.530Z,8.20
2018-05-08T01:23:35.624Z,8.07
2018-05-08T01:26:03.723Z,8.43
2018-05-08T01:28:31.803Z,9.43
2018-05-08T01:30:59.893Z,13.27
2018-05-08T01:33:28.024Z,13.83
2018-05-08T01:35:56.165Z,8.33
2018-05-08T01:38:24.239Z,7.90
2018-05-08T01:40:52.395Z,9.93
2018-05-08T01:43:20.539Z,11.13
2018-05-08T01:45:48.567Z,7.60
2018-05-08T01:48:17.395Z,8.77
2018-05-08T02:03:45.505Z,8.13
2018-05-08T02:06:13.578Z,10.10
2018-05-08T02:08:44.693Z,8.00
2018-05-08T02:11:12.790Z,9.53
2018-05-08T02:13:40.929Z,9.47
2018-05-08T02:16:09.020Z,9.00
2018-05-08T02:18:37.101Z,8.70
2018-05-08T02:21:05.192Z,8.67
2018-05-08T02:23:33.625Z,9.73
2018-05-08T02:26:01.704Z,10.93
2018-05-08T02:28:29.791Z,12.30
2018-05-08T02:30:57.901Z,9.43
2018-05-08T02:33:26.326Z,13.03
2018-05-08T02:35:54.488Z,10.57
2018-05-08T02:38:22.570Z,15.63
2018-05-08T02:40:50.665Z,8.77
2018-05-08T02:43:18.770Z,15.37
2018-05-08T02:45:46.874Z,10.80
2018-05-08T02:48:15.020Z,13.67
2018-05-08T02:50:43.116Z,12.97
2018-05-08T02:53:11.211Z,12.90
2018-05-08T02:55:39.287Z,15.23
2018-05-08T02:58:07.386Z,11.10
2018-05-08T03:00:35.784Z,14.83
2018-05-08T03:03:03.872Z,9.27
2018-05-08T03:05:31.986Z,9.50
2018-05-08T03:08:00.074Z,11.37
2018-05-08T03:10:28.760Z,10.57
2018-05-08T03:12:56.852Z,9.87
2018-05-08T03:15:24.941Z,9.77
2018-05-08T03:17:53.041Z,9.93
2018-05-08T03:20:21.123Z,8.70
2018-05-08T03:22:49.199Z,9.40
2018-05-08T03:25:17.316Z,9.97
2018-05-08T03:27:45.409Z,10.80
2018-05-08T03:30:14.292Z,9.23
2018-05-08T03:32:42.476Z,11.77
2018-05-08T03:35:11.156Z,9.67
2018-05-08T03:37:40.248Z,9.63
2018-05-08T03:40:08.359Z,9.50
2018-05-08T03:42:37.243Z,9.10
2018-05-08T03:45:05.375Z,11.60
2018-05-08T03:47:33.468Z,10.67
2018-05-08T03:50:01.563Z,9.60
2018-05-08T03:52:29.667Z,10.10
2018-05-08T03:54:58.856Z,12.27
2018-05-08T03:57:27.709Z,9.67
2018-05-08T03:59:55.776Z,10.43
2018-05-08T04:15:23.914Z,16.50
2018-05-08T04:17:52.022Z,11.97
2018-05-08T04:20:21.470Z,12.40
2018-05-08T04:22:50.315Z,10.17
2018-05-08T04:25:20.376Z,13.40
2018-05-08T04:27:48.728Z,11.50
2018-05-08T04:30:16.901Z,13.57
2018-05-08T04:32:44.996Z,11.90
2018-05-08T04:35:13.088Z,14.13
2018-05-08T04:37:41.206Z,10.50
2018-05-08T04:40:09.290Z,11.80
2018-05-08T04:42:37.383Z,11.77
2018-05-08T04:45:05.504Z,13.70
2018-05-08T04:47:33.576Z,9.77
2018-05-08T04:50:01.666Z,11.63
2018-05-08T04:52:29.808Z,11.50
2018-05-08T04:54:57.912Z,13.07
2018-05-08T04:57:26.120Z,11.27
2018-05-08T04:59:59.852Z,12.37
2018-05-08T05:02:27.961Z,13.07
2018-05-08T05:04:56.048Z,10.30
2018-05-08T05:07:24.168Z,12.23
2018-05-08T05:09:52.248Z,12.67
2018-05-08T05:12:20.354Z,10.57
2018-05-08T05:14:48.451Z,11.13
2018-05-08T05:17:16.612Z,13.00
2018-05-08T05:19:44.716Z,10.90
2018-05-08T05:22:12.898Z,12.63
2018-05-08T05:24:40.997Z,11.43
2018-05-08T05:27:14.602Z,12.57
2018-05-08T05:29:48.122Z,9.87
2018-05-08T05:32:16.238Z,13.80
2018-05-08T05:34:45.125Z,11.07
2018-05-08T05:37:13.231Z,10.83
2018-05-08T05:39:42.363Z,11.90
2018-05-08T05:42:10.458Z,11.47
2018-05-08T05:44:44.011Z,10.47
2018-05-08T05:47:12.122Z,11.10
2018-05-08T05:49:40.222Z,13.77
2018-05-08T05:52:08.340Z,12.37
2018-05-08T05:54:41.413Z,14.67
2018-05-08T05:57:09.789Z,10.90
2018-05-08T05:59:38.799Z,17.63
2018-05-08T06:02:06.915Z,11.87
2018-05-08T06:04:35.003Z,15.63
2018-05-08T06:07:03.118Z,13.67
2018-05-08T06:09:31.231Z,11.93
2018-05-08T06:11:59.372Z,12.80
2018-05-08T06:14:27.472Z,13.67
2018-05-08T06:16:55.624Z,12.93
2018-05-08T06:19:24.487Z,15.90
2018-05-08T06:21:52.600Z,14.17
2018-05-08T06:24:22.068Z,15.90
2018-05-08T06:26:50.185Z,16.17
2018-05-08T06:29:18.331Z,14.07
2018-05-08T06:31:46.444Z,13.80
2018-05-08T06:34:14.852Z,12.83
2018-05-08T06:36:48.504Z,13.80
2018-05-08T06:39:22.698Z,13.67
2018-05-08T06:41:50.733Z,13.73
2018-05-08T06:44:18.889Z,15.77
2018-05-08T06:46:47.770Z,11.70
2018-05-08T06:49:15.787Z,12.93
2018-05-08T06:51:43.879Z,12.03
2018-05-08T06:54:12.971Z,13.77
2018-05-08T06:56:41.079Z,14.50
2018-05-08T06:59:09.167Z,12.53
2018-05-08T07:01:37.264Z,14.23
2018-05-08T07:04:05.380Z,12.17
2018-05-08T07:06:33.499Z,13.33
2018-05-08T07:09:01.608Z,13.97
2018-05-08T07:11:29.751Z,12.07
2018-05-08T07:13:57.883Z,10.83
2018-05-08T07:16:31.582Z,12.33
2018-05-08T07:28:45.261Z,12.90
2018-05-08T07:31:13.353Z,13.37
2018-05-08T07:33:41.546Z,13.10
2018-05-08T07:36:09.624Z,11.50
2018-05-08T07:38:37.725Z,12.03
2018-05-08T07:41:05.899Z,13.40
2018-05-08T07:43:34.010Z,12.13
2018-05-08T07:46:02.461Z,14.77
2018-05-08T07:48:30.559Z,12.13
2018-05-08T07:50:58.687Z,13.13
2018-05-08T07:53:27.584Z,13.03
2018-05-08T07:55:55.684Z,15.07
2018-05-08T07:58:24.622Z,11.60
2018-05-08T08:00:52.775Z,11.33
2018-05-08T08:03:20.907Z,16.63
2018-05-08T08:05:48.975Z,11.70
2018-05-08T08:08:17.428Z,17.37
2018-05-08T08:10:45.564Z,13.80
2018-05-08T08:13:19.207Z,11.87
2018-05-08T08:15:47.683Z,14.27
2018-05-08T08:18:15.854Z,13.07
2018-05-08T08:20:43.959Z,13.03
2018-05-08T08:23:12.068Z,12.93
2018-05-08T08:25:40.164Z,12.87
2018-05-08T08:28:08.346Z,12.00
2018-05-08T08:30:36.447Z,11.43
2018-05-08T08:33:04.553Z,16.43
2018-05-08T08:35:32.790Z,15.13
2018-05-08T08:38:00.820Z,14.63
2018-05-08T08:40:28.911Z,15.97
2018-05-08T08:42:57.347Z,12.17
2018-05-08T08:45:25.479Z,12.30
2018-05-08T08:47:53.646Z,11.77
2018-05-08T08:50:21.717Z,12.23
2018-05-08T08:52:49.837Z,11.90
2018-05-08T08:55:17.943Z,12.67
2018-05-08T08:57:46.047Z,13.83
2018-05-08T09:00:14.229Z,12.60
2018-05-08T09:02:42.322Z,12.47
2018-05-08T09:05:10.418Z,13.37
2018-05-08T09:07:38.532Z,15.67
2018-05-08T09:10:06.630Z,12.70
2018-05-08T09:12:34.804Z,11.50
2018-05-08T09:15:02.896Z,12.00
2018-05-08T09:17:31.044Z,12.40
2018-05-08T09:19:59.124Z,11.13
2018-05-08T09:22:27.228Z,13.53
2018-05-08T09:24:55.314Z,11.00
2018-05-08T09:27:23.471Z,12.07
2018-05-08T09:29:51.545Z,12.67
2018-05-08T09:32:25.104Z,10.87
2018-05-08T09:34:53.204Z,10.70
2018-05-08T09:37:26.889Z,11.53
2018-05-08T09:39:55.060Z,11.93
2018-05-08T09:42:23.184Z,13.00
2018-05-08T09:44:51.295Z,13.30
2018-05-08T09:47:19.400Z,13.97
2018-05-08T09:49:47.488Z,10.90
2018-05-08T09:52:15.584Z,11.40
2018-05-08T09:54:44.188Z,16.40
2018-05-08T09:57:12.320Z,14.00
2018-05-08T09:59:41.008Z,12.93
2018-05-08T10:02:09.186Z,10.53
2018-05-08T10:04:37.279Z,13.43
2018-05-08T10:07:05.368Z,12.77
2018-05-08T10:09:33.458Z,13.10
2018-05-08T10:12:01.895Z,14.30
2018-05-08T10:14:30.135Z,14.10
2018-05-08T10:16:58.239Z,13.17
2018-05-08T10:19:26.450Z,11.57
2018-05-08T10:21:54.508Z,9.97
2018-05-08T10:24:23.303Z,11.07
2018-05-08T10:26:51.412Z,12.37
2018-05-08T10:29:19.540Z,9.70
2018-05-08T10:31:47.630Z,10.90
2018-05-08T10:47:15.834Z,16.07
2018-05-08T10:49:44.066Z,11.23
2018-05-08T10:52:13.151Z,11.90
2018-05-08T10:54:41.254Z,10.97
2018-05-08T10:57:09.438Z,11.40
2018-05-08T10:59:37.542Z,13.70
2018-05-08T11:02:05.683Z,10.10
2018-05-08T11:04:33.800Z,11.57
2018-05-08T11:07:01.991Z,8.77
2018-05-08T11:09:30.108Z,9.00
2018-05-08T11:11:58.208Z,7.93
2018-05-08T11:14:26.320Z,6.13
2018-05-08T11:16:54.414Z,7.83
2018-05-08T11:19:22.509Z,9.90
2018-05-08T11:21:50.666Z,11.47
2018-05-08T11:24:18.764Z,9.00
2018-05-08T11:26:46.975Z,6.87
2018-05-08T11:29:15.027Z,7.33
2018-05-08T11:31:43.102Z,9.37
2018-05-08T11:34:11.286Z,8.17
2018-05-08T11:36:39.376Z,12.63
2018-05-08T11:39:07.462Z,8.30
2018-05-08T11:41:35.586Z,10.03
2018-05-08T11:44:03.687Z,8.47
2018-05-08T11:46:31.774Z,11.30
2018-05-08T11:48:59.923Z,7.70
2018-05-08T11:51:28.014Z,12.50
2018-05-08T11:53:56.997Z,14.40
2018-05-08T11:56:25.125Z,12.93
2018-05-08T11:58:53.222Z,10.33
2018-05-08T12:01:22.261Z,15.07
2018-05-08T12:03:50.443Z,11.17
2018-05-08T12:06:19.196Z,10.33
2018-05-08T12:08:47.288Z,9.07
2018-05-08T12:11:16.301Z,13.97
2018-05-08T12:13:44.403Z,9.37
2018-05-08T12:16:12.514Z,10.87
2018-05-08T12:18:41.300Z,10.10
2018-05-08T12:21:09.704Z,10.37
2018-05-08T12:23:38.717Z,8.90
2018-05-08T12:26:09.535Z,7.90
2018-05-08T12:41:37.707Z,13.20
2018-05-08T12:44:09.356Z,8.70
2018-05-08T12:46:37.463Z,9.47
2018-05-08T12:49:05.543Z,7.90
2018-05-08T12:51:34.321Z,8.37
2018-05-08T12:54:05.343Z,7.77
2018-05-08T12:56:39.098Z,8.20
2018-05-08T12:59:08.069Z,8.70
2018-05-08T13:01:36.807Z,7.03
2018-05-08T13:04:04.936Z,6.37
2018-05-08T13:06:33.119Z,9.53
2018-05-08T13:09:01.208Z,10.43
2018-05-08T13:11:30.151Z,9.53
2018-05-08T13:13:58.309Z,12.37
2018-05-08T13:16:26.442Z,11.30
2018-05-08T13:18:55.137Z,10.00
2018-05-08T13:21:28.856Z,9.13
2018-05-08T13:24:02.493Z,10.57
2018-05-08T13:26:31.006Z,9.23
2018-05-08T13:28:59.432Z,12.27
2018-05-08T13:31:27.488Z,11.67
2018-05-08T13:33:55.606Z,10.93
2018-05-08T13:36:23.733Z,11.97
2018-05-08T13:38:51.868Z,7.20
2018-05-08T13:41:20.104Z,7.33
2018-05-08T13:43:48.193Z,6.30
2018-05-08T13:46:16.340Z,10.70
2018-05-08T13:48:44.453Z,9.33
2018-05-08T13:51:18.164Z,10.77
2018-05-08T13:53:46.309Z,12.23
2018-05-08T13:56:15.231Z,7.63
2018-05-08T13:58:43.924Z,9.47
2018-05-08T14:01:12.008Z,9.43
2018-05-08T14:03:40.167Z,10.90
2018-05-08T14:06:08.271Z,9.60
2018-05-08T14:08:36.376Z,11.13
2018-05-08T14:11:04.541Z,9.57
2018-05-08T14:13:33.403Z,8.00
2018-05-08T14:16:01.511Z,8.60
2018-05-08T14:18:29.602Z,8.13
2018-05-08T14:20:57.698Z,9.80
2018-05-08T14:23:25.795Z,8.37
2018-05-08T14:25:53.879Z,8.07
2018-05-08T14:28:22.441Z,5.57
2018-05-08T14:30:50.581Z,6.00
2018-05-08T14:33:18.666Z,5.53
2018-05-08T14:35:46.797Z,4.33
2018-05-08T14:38:14.888Z,5.00
2018-05-08T14:40:44.489Z,5.63
2018-05-08T14:43:12.579Z,4.87
2018-05-08T14:45:41.676Z,6.17
2018-05-08T14:48:10.725Z,8.10
2018-05-08T14:50:38.825Z,5.93
2018-05-08T14:53:06.903Z,5.50
2018-05-08T14:55:35.034Z,4.60
2018-05-08T14:58:03.172Z,7.70
2018-05-08T15:00:31.295Z,4.13
2018-05-08T15:02:59.378Z,6.00
2018-05-08T15:05:27.477Z,4.80
2018-05-08T15:07:55.556Z,4.23
2018-05-08T15:10:23.675Z,8.43
2018-05-08T15:12:52.297Z,3.87
2018-05-08T15:15:20.403Z,4.83
2018-05-08T15:17:48.515Z,5.90
2018-05-08T15:20:16.627Z,6.03
2018-05-08T15:22:44.921Z,5.60
2018-05-08T15:25:13.130Z,4.80
2018-05-08T15:27:41.191Z,5.37
2018-05-08T15:30:09.285Z,5.30
2018-05-08T15:32:37.409Z,4.73
2018-05-08T15:35:05.730Z,4.97
2018-05-08T15:37:39.653Z,7.00
2018-05-08T15:40:13.294Z,5.53
2018-05-08T15:42:41.385Z,8.40
2018-05-08T15:45:09.470Z,6.03
2018-05-08T15:47:37.595Z,8.07
2018-05-08T15:50:05.728Z,5.87
2018-05-08T15:52:34.169Z,4.50
2018-05-08T15:55:02.315Z,7.73
2018-05-08T15:57:30.448Z,4.13
2018-05-08T15:59:59.187Z,4.73
2018-05-08T16:02:27.387Z,4.90
2018-05-08T16:04:55.475Z,5.20
2018-05-08T16:07:24.107Z,5.37
2018-05-08T16:09:53.318Z,5.73
2018-05-08T16:12:21.513Z,7.30
2018-05-08T16:14:49.867Z,6.30
2018-05-08T16:17:18.049Z,5.53
2018-05-08T16:19:46.183Z,7.47
2018-05-08T16:22:14.813Z,8.67
2018-05-08T16:24:43.718Z,4.10
2018-05-08T16:27:11.827Z,11.07
2018-05-08T16:42:39.960Z,22.43
2018-05-08T16:45:08.405Z,18.23
2018-05-08T16:47:36.483Z,18.17
2018-05-08T16:50:04.607Z,20.83
2018-05-08T16:52:32.804Z,18.80
2018-05-08T16:55:00.921Z,21.23
2018-05-08T16:57:29.359Z,18.27
2018-05-08T16:59:57.471Z,24.47
2018-05-08T17:02:25.596Z,21.73
2018-05-08T17:04:53.764Z,19.13
2018-05-08T17:07:21.904Z,20.83
2018-05-08T17:09:50.044Z,20.43
2018-05-08T17:12:18.155Z,19.27
2018-05-08T17:14:46.256Z,22.93
2018-05-08T17:17:15.449Z,23.57
2018-05-08T17:19:44.505Z,23.30
2018-05-08T17:22:12.602Z,19.83
2018-05-08T17:24:40.710Z,17.83
2018-05-08T17:27:08.812Z,17.70
2018-05-08T17:29:36.912Z,19.53
2018-05-08T17:45:06.005Z,22.70
2018-05-08T17:47:34.676Z,19.10
2018-05-08T17:50:03.519Z,21.87
2018-05-08T17:52:32.445Z,21.23
2018-05-08T17:55:01.250Z,18.83
2018-05-08T18:10:30.290Z,20.13
2018-05-08T18:12:58.425Z,16.43
2018-05-08T18:15:26.608Z,23.53
2018-05-08T18:18:00.764Z,20.03
2018-05-08T18:20:29.975Z,19.10
2018-05-08T18:22:58.124Z,16.83
2018-05-08T18:25:26.265Z,14.70
2018-05-08T18:27:55.064Z,18.50
2018-05-08T18:30:23.226Z,18.67
2018-05-08T18:32:51.392Z,18.07
2018-05-08T18:35:19.493Z,18.87
2018-05-08T18:37:47.609Z,18.60
2018-05-08T18:40:15.735Z,15.07
2018-05-08T18:42:44.445Z,20.10
2018-05-08T18:45:13.187Z,19.40
2018-05-08T18:47:41.273Z,16.40
2018-05-08T18:50:09.420Z,15.37
2018-05-08T18:52:37.555Z,17.57
2018-05-08T18:55:05.680Z,17.90
2018-05-08T18:57:33.908Z,15.50
2018-05-08T19:00:07.860Z,15.70
2018-05-08T19:02:41.381Z,16.07
2018-05-08T19:05:09.515Z,16.17
2018-05-08T19:07:37.639Z,14.77
2018-05-08T19:10:05.803Z,19.37
2018-05-08T19:12:35.493Z,16.37
2018-05-08T19:15:09.323Z,19.63
2018-05-08T19:17:37.395Z,19.77
2018-05-08T19:22:38.589Z,17.27
2018-05-08T19:25:06.706Z,18.73
2018-05-08T19:27:34.803Z,25.10
2018-05-08T19:30:08.384Z,19.43
2018-05-08T19:32:36.483Z,18.43
2018-05-08T19:35:11.273Z,18.93
2018-05-08T19:37:45.096Z,20.80
2018-05-08T19:40:13.245Z,18.13
2018-05-08T19:42:41.392Z,19.57
2018-05-08T19:45:09.845Z,18.97
2018-05-08T19:47:38.337Z,20.33
2018-05-08T19:50:06.707Z,20.57
2018-05-08T19:52:34.872Z,16.80
2018-05-08T19:55:02.916Z,16.37
2018-05-08T19:57:31.027Z,16.77
2018-05-08T19:59:59.216Z,23.87
2018-05-08T20:02:27.305Z,16.00
2018-05-08T20:04:55.400Z,17.90
2018-05-08T20:07:23.532Z,16.77
2018-05-08T20:09:51.628Z,19.77
2018-05-08T20:12:19.775Z,18.23
2018-05-08T20:14:47.870Z,18.20
2018-05-08T20:17:15.956Z,14.87
2018-05-08T20:19:44.269Z,19.17
2018-05-08T20:22:12.379Z,17.87
2018-05-08T20:24:41.288Z,18.87
2018-05-08T20:27:09.407Z,19.50
2018-05-08T20:29:37.498Z,22.23
2018-05-08T20:32:05.598Z,21.20
2018-05-08T20:34:33.711Z,24.43
2018-05-08T20:37:02.596Z,23.87
2018-05-08T20:39:31.330Z,24.17
2018-05-08T20:41:59.432Z,25.97
2018-05-08T20:44:27.534Z,25.60
2018-05-08T20:46:55.652Z,26.83
2018-05-08T20:49:23.777Z,25.60
2018-05-08T20:51:57.518Z,27.40
2018-05-08T20:54:31.090Z,34.37
2018-05-08T20:56:59.268Z,28.03
2018-05-08T20:59:27.393Z,25.33
2018-05-08T21:01:55.497Z,24.20
2018-05-08T21:04:23.620Z,26.67
2018-05-08T21:06:52.265Z,28.03
2018-05-08T21:09:20.419Z,28.00
2018-05-08T21:11:49.270Z,28.90
2018-05-08T21:14:17.378Z,26.53
2018-05-08T21:16:45.495Z,25.40
2018-05-08T21:19:13.614Z,29.47
2018-05-08T21:21:41.717Z,26.63
2018-05-08T21:24:09.835Z,28.73
2018-05-08T21:26:37.955Z,30.07
2018-05-08T21:29:06.093Z,26.87
2018-05-08T21:31:34.961Z,30.43
2018-05-08T21:34:03.062Z,31.63
2018-05-08T21:36:31.161Z,28.90
2018-05-08T21:38:59.262Z,30.67
2018-05-08T21:41:28.194Z,29.80
2018-05-08T21:43:56.805Z,28.90
2018-05-08T21:46:24.898Z,30.73
2018-05-08T21:48:53.000Z,29.73
2018-05-08T21:51:21.918Z,26.93
2018-05-08T21:53:50.014Z,29.70
2018-05-08T21:56:18.164Z,31.70
2018-05-08T21:58:46.252Z,30.70
2018-05-08T22:01:14.352Z,37.27
2018-05-08T22:03:42.456Z,29.27
2018-05-08T22:06:10.550Z,33.70
2018-05-08T22:08:38.647Z,30.00
2018-05-08T22:11:06.749Z,30.87
2018-05-08T22:13:35.667Z,32.20
2018-05-08T22:16:03.791Z,31.60
2018-05-08T22:18:31.889Z,30.00
2018-05-08T22:20:59.991Z,33.80
2018-05-08T22:23:28.383Z,35.73
2018-05-08T22:25:56.470Z,31.43
2018-05-08T22:28:30.111Z,34.33
2018-05-08T22:30:58.239Z,35.37
2018-05-08T22:33:26.327Z,32.77
2018-05-08T22:35:54.489Z,34.33
2018-05-08T22:38:22.571Z,38.50
2018-05-08T22:40:51.407Z,35.47
2018-05-08T22:43:19.555Z,40.03
2018-05-08T22:45:47.674Z,38.13
2018-05-08T22:48:15.767Z,41.33
2018-05-08T22:50:43.864Z,38.97
2018-05-08T22:53:11.968Z,38.83
2018-05-08T22:55:40.059Z,40.67
2018-05-08T22:58:08.217Z,41.53
2018-05-08T23:00:36.813Z,40.83
2018-05-08T23:03:04.947Z,37.10
2018-05-08T23:05:33.061Z,41.60
2018-05-08T23:08:01.151Z,40.13
2018-05-08T23:10:29.249Z,32.87
2018-05-08T23:12:57.343Z,33.97
2018-05-08T23:15:25.439Z,36.57
2018-05-08T23:17:53.587Z,35.50
2018-05-08T23:20:21.683Z,36.37
2018-05-08T23:22:49.815Z,39.20
2018-05-08T23:25:17.932Z,34.77
2018-05-08T23:27:46.179Z,40.00
2018-05-08T23:30:14.283Z,38.90
2018-05-08T23:32:42.731Z,36.57
2018-05-08T23:35:11.701Z,40.23
2018-05-08T23:37:40.272Z,35.07
2018-05-08T23:40:08.373Z,40.03
2018-05-08T23:42:36.472Z,38.30
2018-05-08T23:45:04.564Z,36.77
2018-05-08T23:47:32.663Z,35.20
2018-05-08T23:50:00.777Z,39.20
2018-05-08T23:52:28.897Z,34.60
2018-05-08T23:54:57.327Z,32.30
2018-05-08T23:57:25.432Z,37.93
2018-05-08T23:59:54.256Z,31.70
